createdAt,value
2018-12-25T00:01:38.715Z,8.80
2018-12-25T00:04:13.191Z,8.80
2018-12-25T00:06:43.688Z,8.80
2018-12-25T00:09:14.579Z,8.80
2018-12-25T00:11:45.372Z,8.80
2018-12-25T00:14:19.730Z,8.80
2018-12-25T00:16:50.325Z,8.80
2018-12-25T00:19:21.978Z,8.80
2018-12-25T00:21:53.912Z,8.80
2018-12-25T00:24:24.724Z,8.90
2018-12-25T00:26:55.671Z,8.90
2018-12-25T00:29:29.501Z,8.90
2018-12-25T00:32:02.328Z,8.90
2018-12-25T00:34:34.723Z,8.90
2018-12-25T00:37:06.039Z,8.90
2018-12-25T00:39:36.989Z,8.90
2018-12-25T00:42:11.380Z,8.90
2018-12-25T00:44:43.690Z,8.90
2018-12-25T00:47:15.241Z,8.90
2018-12-25T00:49:52.524Z,8.90
2018-12-25T00:52:23.144Z,9.00
2018-12-25T00:54:53.948Z,9.00
2018-12-25T00:57:28.385Z,9.00
2018-12-25T01:00:00.872Z,9.00
2018-12-25T01:02:31.536Z,9.00
2018-12-25T01:05:05.369Z,9.00
2018-12-25T01:07:36.129Z,9.00
2018-12-25T01:10:07.072Z,9.00
2018-12-25T01:12:39.869Z,9.00
2018-12-25T01:15:11.991Z,9.00
2018-12-25T01:17:42.798Z,9.00
2018-12-25T01:20:15.304Z,9.00
2018-12-25T01:22:48.648Z,9.00
2018-12-25T01:25:19.814Z,9.00
2018-12-25T01:27:52.343Z,9.00
2018-12-25T01:30:23.102Z,9.00
2018-12-25T01:32:53.837Z,9.00
2018-12-25T01:35:27.334Z,9.00
2018-12-25T01:37:58.252Z,9.00
2018-12-25T01:40:30.171Z,9.10
2018-12-25T01:43:04.195Z,9.10
2018-12-25T01:45:35.052Z,9.10
2018-12-25T01:48:05.913Z,9.10
2018-12-25T01:50:36.557Z,9.10
2018-12-25T01:53:07.288Z,9.10
2018-12-25T01:55:39.395Z,9.10
2018-12-25T01:58:10.392Z,9.10
2018-12-25T02:00:43.901Z,9.10
2018-12-25T02:03:14.865Z,9.10
2018-12-25T02:05:48.157Z,9.10
2018-12-25T02:08:18.917Z,9.10
2018-12-25T02:10:49.524Z,9.10
2018-12-25T02:13:20.727Z,9.00
2018-12-25T02:15:52.369Z,9.00
2018-12-25T02:18:24.509Z,9.00
2018-12-25T02:20:55.050Z,9.00
2018-12-25T02:23:26.427Z,9.00
2018-12-25T02:25:57.097Z,9.00
2018-12-25T02:28:28.189Z,9.00
2018-12-25T02:30:59.090Z,9.00
2018-12-25T02:33:29.787Z,9.00
2018-12-25T02:36:02.831Z,9.00
2018-12-25T02:38:33.845Z,9.00
2018-12-25T02:41:04.946Z,9.00
2018-12-25T02:43:36.089Z,9.00
2018-12-25T02:46:06.695Z,9.00
2018-12-25T02:48:37.546Z,9.00
2018-12-25T02:51:10.452Z,9.00
2018-12-25T02:53:41.155Z,9.00
2018-12-25T02:56:12.004Z,9.00
2018-12-25T02:58:43.106Z,9.00
2018-12-25T03:01:13.976Z,9.00
2018-12-25T03:03:46.379Z,9.00
2018-12-25T03:06:17.154Z,9.00
2018-12-25T03:08:47.799Z,9.00
2018-12-25T03:11:18.508Z,9.00
2018-12-25T03:13:50.532Z,9.00
2018-12-25T03:16:21.112Z,9.00
2018-12-25T03:18:51.822Z,9.00
2018-12-25T03:21:22.557Z,9.00
2018-12-25T03:23:53.285Z,9.00
2018-12-25T03:26:25.859Z,9.00
2018-12-25T03:28:59.865Z,9.00
2018-12-25T03:31:30.815Z,9.00
2018-12-25T03:34:02.768Z,9.00
2018-12-25T03:36:33.692Z,9.00
2018-12-25T03:39:06.282Z,9.00
2018-12-25T03:41:37.440Z,9.00
2018-12-25T03:44:08.107Z,9.00
2018-12-25T03:46:41.341Z,9.00
2018-12-25T03:49:12.110Z,9.00
2018-12-25T03:51:42.903Z,9.10
2018-12-25T03:54:21.573Z,9.10
2018-12-25T03:56:54.298Z,9.00
2018-12-25T03:59:25.162Z,9.00
2018-12-25T04:01:55.947Z,9.00
2018-12-25T04:04:27.062Z,9.00
2018-12-25T04:06:58.006Z,9.00
2018-12-25T04:09:29.798Z,9.00
2018-12-25T04:12:02.749Z,9.00
2018-12-25T04:14:35.830Z,9.00
2018-12-25T04:17:06.300Z,9.10
2018-12-25T04:19:37.741Z,9.10
2018-12-25T04:22:08.418Z,9.10
2018-12-25T04:24:42.230Z,9.10
2018-12-25T04:27:16.267Z,9.10
2018-12-25T04:29:47.178Z,9.10
2018-12-25T04:32:18.640Z,9.10
2018-12-25T04:34:49.641Z,9.10
2018-12-25T04:37:21.603Z,9.10
2018-12-25T04:39:59.158Z,9.10
2018-12-25T04:42:33.776Z,9.10
2018-12-25T04:45:06.615Z,9.10
2018-12-25T04:47:38.309Z,9.10
2018-12-25T04:50:09.010Z,9.10
2018-12-25T04:52:39.656Z,9.10
2018-12-25T04:55:10.502Z,9.20
2018-12-25T04:57:41.331Z,9.20
2018-12-25T05:00:11.911Z,9.20
2018-12-25T05:02:42.615Z,9.20
2018-12-25T05:05:13.122Z,9.20
2018-12-25T05:07:43.913Z,9.20
2018-12-25T05:10:14.807Z,9.20
2018-12-25T05:12:45.544Z,9.20
2018-12-25T05:15:16.298Z,9.20
2018-12-25T05:17:51.344Z,9.20
2018-12-25T05:20:28.406Z,9.20
2018-12-25T05:23:01.869Z,9.20
2018-12-25T05:25:33.799Z,9.20
2018-12-25T05:28:06.227Z,9.20
2018-12-25T05:30:39.708Z,9.20
2018-12-25T05:33:10.715Z,9.20
2018-12-25T05:35:43.326Z,9.20
2018-12-25T05:38:18.131Z,9.20
2018-12-25T05:40:52.190Z,9.20
2018-12-25T05:43:24.403Z,9.20
2018-12-25T05:45:56.817Z,9.20
2018-12-25T05:48:29.744Z,9.20
2018-12-25T05:51:01.382Z,9.20
2018-12-25T05:53:36.066Z,9.20
2018-12-25T05:56:08.785Z,9.20
2018-12-25T05:58:42.626Z,9.20
2018-12-25T06:01:15.590Z,9.20
2018-12-25T06:03:48.400Z,9.20
2018-12-25T06:06:19.350Z,9.20
2018-12-25T06:08:51.050Z,9.20
2018-12-25T06:11:26.822Z,9.20
2018-12-25T06:14:06.675Z,9.20
2018-12-25T06:16:33.935Z,9.20
2018-12-25T06:19:05.115Z,9.20
2018-12-25T06:21:35.713Z,9.20
2018-12-25T06:24:07.824Z,9.20
2018-12-25T06:26:38.376Z,9.20
2018-12-25T06:29:10.901Z,9.20
2018-12-25T06:31:44.095Z,9.20
2018-12-25T06:34:14.607Z,9.20
2018-12-25T06:36:45.525Z,9.30
2018-12-25T06:39:16.703Z,9.30
2018-12-25T06:41:47.339Z,9.20
2018-12-25T06:44:18.102Z,9.20
2018-12-25T06:46:50.706Z,9.20
2018-12-25T06:49:21.202Z,9.20
2018-12-25T06:51:53.653Z,9.20
2018-12-25T06:54:27.964Z,9.20
2018-12-25T06:56:59.348Z,9.20
2018-12-25T06:59:36.458Z,9.20
2018-12-25T07:02:11.243Z,9.20
2018-12-25T07:04:43.704Z,9.20
2018-12-25T07:07:14.516Z,9.20
2018-12-25T07:09:49.339Z,9.20
2018-12-25T07:12:22.247Z,9.20
2018-12-25T07:14:56.014Z,9.20
2018-12-25T07:17:26.508Z,9.20
2018-12-25T07:19:57.001Z,9.20
2018-12-25T07:22:27.679Z,9.20
2018-12-25T07:24:58.171Z,9.20
2018-12-25T07:27:28.762Z,9.20
2018-12-25T07:29:59.458Z,9.20
2018-12-25T07:32:29.868Z,9.20
2018-12-25T07:35:15.402Z,9.20
2018-12-25T07:37:45.943Z,9.20
2018-12-25T07:40:17.296Z,9.20
2018-12-25T07:42:47.801Z,9.20
2018-12-25T07:45:18.299Z,9.20
2018-12-25T07:47:49.065Z,9.20
2018-12-25T07:50:21.919Z,9.20
2018-12-25T07:52:54.826Z,9.20
2018-12-25T07:55:25.272Z,9.30
2018-12-25T07:57:56.951Z,9.30
2018-12-25T08:00:29.963Z,9.30
2018-12-25T08:03:00.669Z,9.30
2018-12-25T08:05:32.903Z,9.30
2018-12-25T08:08:04.308Z,9.30
2018-12-25T08:10:35.495Z,9.30
2018-12-25T08:13:07.349Z,9.30
2018-12-25T08:15:37.883Z,9.30
2018-12-25T08:18:08.349Z,9.30
2018-12-25T08:20:39.135Z,9.30
2018-12-25T08:23:09.708Z,9.30
2018-12-25T08:25:40.583Z,9.30
2018-12-25T08:28:11.761Z,9.30
2018-12-25T08:30:42.437Z,9.30
2018-12-25T08:33:13.307Z,9.40
2018-12-25T08:35:43.845Z,9.40
2018-12-25T08:38:15.546Z,9.40
2018-12-25T08:40:46.047Z,9.40
2018-12-25T08:43:16.927Z,9.40
2018-12-25T08:45:50.687Z,9.40
2018-12-25T08:48:26.801Z,9.40
2018-12-25T08:50:57.125Z,9.40
2018-12-25T08:53:28.604Z,9.40
2018-12-25T08:56:01.175Z,9.40
2018-12-25T08:58:33.456Z,9.40
2018-12-25T09:01:05.882Z,9.40
2018-12-25T09:03:37.561Z,9.40
2018-12-25T09:06:09.055Z,9.40
2018-12-25T09:08:41.478Z,9.50
2018-12-25T09:11:13.431Z,9.50
2018-12-25T09:13:44.536Z,9.50
2018-12-25T09:16:23.171Z,9.50
2018-12-25T09:18:54.501Z,9.50
2018-12-25T09:21:25.804Z,9.50
2018-12-25T09:23:56.280Z,9.50
2018-12-25T09:26:29.115Z,9.50
2018-12-25T09:29:01.651Z,9.50
2018-12-25T09:31:32.237Z,9.50
2018-12-25T09:34:06.287Z,9.60
2018-12-25T09:36:39.598Z,9.60
2018-12-25T09:39:12.705Z,9.60
2018-12-25T09:41:44.849Z,9.60
2018-12-25T09:44:18.099Z,9.60
2018-12-25T09:46:48.616Z,9.60
2018-12-25T09:49:23.816Z,9.60
2018-12-25T09:51:58.173Z,9.60
2018-12-25T09:54:32.818Z,9.60
2018-12-25T09:57:05.953Z,9.60
2018-12-25T09:59:39.204Z,9.60
2018-12-25T10:02:13.266Z,9.60
2018-12-25T10:04:56.646Z,9.70
2018-12-25T10:07:27.672Z,9.60
2018-12-25T10:10:01.632Z,9.70
2018-12-25T10:12:35.633Z,9.70
2018-12-25T10:15:07.950Z,9.70
2018-12-25T10:17:43.842Z,9.70
2018-12-25T10:20:17.394Z,9.70
2018-12-25T10:22:50.933Z,9.70
2018-12-25T10:25:25.290Z,9.70
2018-12-25T10:27:57.462Z,9.70
2018-12-25T10:30:31.059Z,9.70
2018-12-25T10:33:05.769Z,9.70
2018-12-25T10:35:38.636Z,9.70
2018-12-25T10:38:15.814Z,9.70
2018-12-25T10:41:00.684Z,9.70
2018-12-25T10:43:35.901Z,9.70
2018-12-25T10:46:08.251Z,9.70
2018-12-25T10:48:42.114Z,9.70
2018-12-25T10:51:14.024Z,9.80
2018-12-25T10:54:03.308Z,9.80
2018-12-25T10:56:34.947Z,9.80
2018-12-25T10:59:06.000Z,9.80
2018-12-25T11:01:41.852Z,9.80
2018-12-25T11:04:14.888Z,9.80
2018-12-25T11:06:45.235Z,9.80
2018-12-25T11:09:15.706Z,9.80
2018-12-25T11:11:47.723Z,9.80
2018-12-25T11:14:18.464Z,9.80
2018-12-25T11:16:51.187Z,9.80
2018-12-25T11:19:22.090Z,9.80
2018-12-25T11:21:52.829Z,9.80
2018-12-25T11:24:25.990Z,9.80
2018-12-25T11:27:07.247Z,9.80
2018-12-25T11:29:44.286Z,9.80
2018-12-25T11:32:15.545Z,9.80
2018-12-25T11:34:48.193Z,9.80
2018-12-25T11:37:24.022Z,9.90
2018-12-25T11:39:54.459Z,9.90
2018-12-25T11:42:27.099Z,9.90
2018-12-25T11:44:59.046Z,9.90
2018-12-25T11:47:31.454Z,9.90
2018-12-25T11:50:01.898Z,9.90
2018-12-25T11:52:32.647Z,9.90
2018-12-25T11:55:07.101Z,9.90
2018-12-25T11:57:37.616Z,9.90
2018-12-25T12:00:09.226Z,9.90
2018-12-25T12:02:40.062Z,9.90
2018-12-25T12:05:10.875Z,9.90
2018-12-25T12:07:46.463Z,9.90
2018-12-25T12:10:17.131Z,9.90
2018-12-25T12:12:47.673Z,9.90
2018-12-25T12:15:25.677Z,9.90
2018-12-25T12:17:56.518Z,9.90
2018-12-25T12:20:27.897Z,9.90
2018-12-25T12:23:01.985Z,10.00
2018-12-25T12:25:38.039Z,10.00
2018-12-25T12:28:09.807Z,10.00
2018-12-25T12:30:43.470Z,10.00
2018-12-25T12:33:16.802Z,10.00
2018-12-25T12:35:49.195Z,10.00
2018-12-25T12:38:24.032Z,10.00
2018-12-25T12:40:54.701Z,10.00
2018-12-25T12:43:27.020Z,10.00
2018-12-25T12:45:57.500Z,10.10
2018-12-25T12:48:30.545Z,10.10
2018-12-25T12:51:01.464Z,10.10
2018-12-25T12:53:36.280Z,10.10
2018-12-25T12:56:07.019Z,10.10
2018-12-25T12:58:40.069Z,10.10
2018-12-25T13:01:10.642Z,10.10
2018-12-25T13:03:45.454Z,10.10
2018-12-25T13:06:20.775Z,10.10
2018-12-25T13:08:51.186Z,10.10
2018-12-25T13:11:25.188Z,10.10
2018-12-25T13:13:55.530Z,10.10
2018-12-25T13:16:27.745Z,10.10
2018-12-25T13:18:59.641Z,10.10
2018-12-25T13:21:42.091Z,10.10
2018-12-25T13:24:13.016Z,10.10
2018-12-25T13:26:45.740Z,10.10
2018-12-25T13:29:16.229Z,10.10
2018-12-25T13:31:47.857Z,10.10
2018-12-25T13:34:18.706Z,10.10
2018-12-25T13:36:50.397Z,10.10
2018-12-25T13:39:25.291Z,10.10
2018-12-25T13:41:59.094Z,10.20
2018-12-25T13:44:35.460Z,10.20
2018-12-25T13:47:10.184Z,10.20
2018-12-25T13:49:40.603Z,10.20
2018-12-25T13:52:13.172Z,10.20
2018-12-25T13:54:45.347Z,10.20
2018-12-25T13:57:19.128Z,10.20
2018-12-25T13:59:50.069Z,10.20
2018-12-25T14:02:20.708Z,10.20
2018-12-25T14:04:51.583Z,10.20
2018-12-25T14:07:21.938Z,10.20
2018-12-25T14:09:52.695Z,10.20
2018-12-25T14:12:23.413Z,10.20
2018-12-25T14:14:54.314Z,10.20
2018-12-25T14:17:24.956Z,10.20
2018-12-25T14:19:55.367Z,10.20
2018-12-25T14:22:27.486Z,10.20
2018-12-25T14:25:04.043Z,10.20
2018-12-25T14:27:34.907Z,10.20
2018-12-25T14:30:09.033Z,10.20
2018-12-25T14:32:40.858Z,10.20
2018-12-25T14:35:11.292Z,10.20
2018-12-25T14:37:41.900Z,10.20
2018-12-25T14:40:16.843Z,10.20
2018-12-25T14:42:48.715Z,10.20
2018-12-25T14:45:21.499Z,10.20
2018-12-25T14:47:52.000Z,10.20
2018-12-25T14:50:24.245Z,10.20
2018-12-25T14:52:56.090Z,10.30
2018-12-25T14:55:30.203Z,10.20
2018-12-25T14:58:00.983Z,10.20
2018-12-25T15:00:33.973Z,10.20
2018-12-25T15:03:04.907Z,10.20
2018-12-25T15:05:45.842Z,10.20
2018-12-25T15:08:19.329Z,10.20
2018-12-25T15:10:52.207Z,10.20
2018-12-25T15:13:22.866Z,10.20
2018-12-25T15:15:58.358Z,10.20
2018-12-25T15:18:29.760Z,10.20
2018-12-25T15:21:07.943Z,10.20
2018-12-25T15:23:38.483Z,10.20
2018-12-25T15:26:12.831Z,10.20
2018-12-25T15:28:43.466Z,10.20
2018-12-25T15:31:14.359Z,10.20
2018-12-25T15:33:45.637Z,10.20
2018-12-25T15:36:16.210Z,10.20
2018-12-25T15:38:46.760Z,10.20
2018-12-25T15:41:21.466Z,10.20
2018-12-25T15:43:57.670Z,10.20
2018-12-25T15:46:28.222Z,10.20
2018-12-25T15:48:59.004Z,10.20
2018-12-25T15:51:30.963Z,10.20
2018-12-25T15:54:05.677Z,10.20
2018-12-25T15:56:37.839Z,10.20
2018-12-25T15:59:08.627Z,10.20
2018-12-25T16:01:44.477Z,10.20
2018-12-25T16:04:19.950Z,10.20
2018-12-25T16:06:50.575Z,10.20
2018-12-25T16:09:23.716Z,10.20
2018-12-25T16:11:54.401Z,10.20
2018-12-25T16:14:26.174Z,10.20
2018-12-25T16:16:57.553Z,10.20
2018-12-25T16:19:29.592Z,10.30
2018-12-25T16:22:01.345Z,10.30
2018-12-25T16:24:33.119Z,10.30
2018-12-25T16:27:04.066Z,10.20
2018-12-25T16:29:34.639Z,10.30
2018-12-25T16:32:07.517Z,10.30
2018-12-25T16:34:38.195Z,10.30
2018-12-25T16:37:08.713Z,10.30
2018-12-25T16:39:43.510Z,10.30
2018-12-25T16:42:14.134Z,10.30
2018-12-25T16:44:46.441Z,10.30
2018-12-25T16:47:16.952Z,10.30
2018-12-25T16:49:51.141Z,10.30
2018-12-25T16:52:22.494Z,10.30
2018-12-25T16:54:54.903Z,10.30
2018-12-25T16:57:28.687Z,10.30
2018-12-25T16:59:59.193Z,10.30
2018-12-25T17:02:29.884Z,10.30
2018-12-25T17:05:01.234Z,10.30
2018-12-25T17:07:31.722Z,10.30
2018-12-25T17:10:02.530Z,10.30
2018-12-25T17:12:33.923Z,10.30
2018-12-25T17:15:13.828Z,10.30
2018-12-25T17:17:45.130Z,10.30
2018-12-25T17:20:15.859Z,10.30
2018-12-25T17:22:47.557Z,10.30
2018-12-25T17:25:18.719Z,10.30
2018-12-25T17:27:49.247Z,10.30
2018-12-25T17:30:20.271Z,10.30
2018-12-25T17:32:52.776Z,10.30
2018-12-25T17:35:23.976Z,10.30
2018-12-25T17:37:54.670Z,10.30
2018-12-25T17:40:28.338Z,10.30
2018-12-25T17:43:01.981Z,10.30
2018-12-25T17:45:36.106Z,10.30
2018-12-25T17:48:08.435Z,10.30
2018-12-25T17:50:49.771Z,10.30
2018-12-25T17:53:20.283Z,10.30
2018-12-25T17:55:52.322Z,10.30
2018-12-25T17:58:29.174Z,10.30
2018-12-25T18:01:01.417Z,10.30
2018-12-25T18:03:43.011Z,10.30
2018-12-25T18:06:13.916Z,10.30
2018-12-25T18:08:45.449Z,10.30
2018-12-25T18:11:18.506Z,10.30
2018-12-25T18:13:49.360Z,10.30
2018-12-25T18:16:20.258Z,10.30
2018-12-25T18:18:52.369Z,10.30
2018-12-25T18:21:25.625Z,10.30
2018-12-25T18:23:59.089Z,10.20
2018-12-25T18:26:33.297Z,10.20
2018-12-25T18:29:03.955Z,10.20
2018-12-25T18:31:40.417Z,10.20
2018-12-25T18:34:12.428Z,10.20
2018-12-25T18:36:46.098Z,10.20
2018-12-25T18:39:19.807Z,10.20
2018-12-25T18:41:54.472Z,10.20
2018-12-25T18:44:37.335Z,10.20
2018-12-25T18:47:08.254Z,10.20
2018-12-25T18:49:41.420Z,10.20
2018-12-25T18:52:12.860Z,10.20
2018-12-25T18:54:45.629Z,10.20
2018-12-25T18:57:21.064Z,10.20
2018-12-25T18:59:52.578Z,10.20
2018-12-25T19:02:26.177Z,10.20
2018-12-25T19:04:56.913Z,10.20
2018-12-25T19:07:29.067Z,10.20
2018-12-25T19:10:04.805Z,10.20
2018-12-25T19:12:38.297Z,10.20
2018-12-25T19:15:30.965Z,10.30
2018-12-25T19:18:06.705Z,10.20
2018-12-25T19:20:44.479Z,10.20
2018-12-25T19:23:20.676Z,10.20
2018-12-25T19:25:51.749Z,10.20
2018-12-25T19:28:29.126Z,10.30
2018-12-25T19:31:01.447Z,10.30
2018-12-25T19:33:38.000Z,10.30
2018-12-25T19:36:12.532Z,10.30
2018-12-25T19:38:46.742Z,10.30
2018-12-25T19:41:21.007Z,10.30
2018-12-25T19:43:57.589Z,10.30
2018-12-25T19:46:33.859Z,10.30
2018-12-25T19:49:29.897Z,10.30
2018-12-25T19:52:05.844Z,10.30
2018-12-25T19:54:51.101Z,10.30
2018-12-25T19:57:45.475Z,10.20
2018-12-25T20:00:18.859Z,10.20
2018-12-25T20:03:46.225Z,10.20
2018-12-25T20:07:40.365Z,10.20
2018-12-25T20:11:20.409Z,10.20
2018-12-25T20:14:52.195Z,10.20
2018-12-25T20:18:30.208Z,10.10
2018-12-25T20:21:45.580Z,10.10
2018-12-25T20:25:11.418Z,10.10
2018-12-25T20:29:01.389Z,10.10
2018-12-25T20:32:34.912Z,10.10
2018-12-25T20:36:06.095Z,10.10
2018-12-25T20:39:37.536Z,10.10
2018-12-25T20:43:14.429Z,10.10
2018-12-25T20:46:46.468Z,10.10
2018-12-25T20:50:23.409Z,10.10
2018-12-25T20:53:39.365Z,10.10
2018-12-25T20:57:17.417Z,10.10
2018-12-25T21:00:55.845Z,10.10
2018-12-25T21:04:24.775Z,10.10
2018-12-25T21:08:00.849Z,10.10
2018-12-25T21:11:47.277Z,10.10
2018-12-25T21:15:25.647Z,10.10
2018-12-25T21:18:48.495Z,10.10
2018-12-25T21:22:06.587Z,10.10
2018-12-25T21:25:31.083Z,10.10
2018-12-25T21:27:59.546Z,10.10
2018-12-25T21:30:30.638Z,10.10
2018-12-25T21:33:04.048Z,10.20
2018-12-25T21:38:28.228Z,10.20
2018-12-25T21:41:04.617Z,10.20
2018-12-25T21:43:36.979Z,10.20
2018-12-25T21:46:16.161Z,10.20
2018-12-25T21:48:52.151Z,10.30
2018-12-25T21:51:25.618Z,10.30
2018-12-25T21:53:59.122Z,10.30
2018-12-25T21:56:36.682Z,10.30
2018-12-25T21:59:13.136Z,10.30
2018-12-25T22:01:54.347Z,10.30
2018-12-25T22:04:32.631Z,10.30
2018-12-25T22:07:03.540Z,10.30
2018-12-25T22:09:40.489Z,10.30
2018-12-25T22:12:21.175Z,10.30
2018-12-25T22:14:53.338Z,10.30
2018-12-25T22:17:27.062Z,10.40
2018-12-25T22:20:02.597Z,10.40
2018-12-25T22:22:35.878Z,10.30
2018-12-25T22:25:08.737Z,10.40
2018-12-25T22:27:48.374Z,10.40
2018-12-25T22:30:21.110Z,10.40
2018-12-25T22:32:52.342Z,10.40
2018-12-25T22:35:30.595Z,10.40
2018-12-25T22:38:06.128Z,10.40
2018-12-25T22:40:50.579Z,10.40
2018-12-25T22:43:24.316Z,10.40
2018-12-25T22:45:55.193Z,10.40
2018-12-25T22:48:28.882Z,10.40
2018-12-25T22:50:59.801Z,10.40
2018-12-25T22:53:30.781Z,10.40
2018-12-25T22:56:01.589Z,10.40
2018-12-25T22:58:42.862Z,10.40
2018-12-25T23:01:13.532Z,10.40
2018-12-25T23:03:49.020Z,10.40
2018-12-25T23:06:21.366Z,10.40
2018-12-25T23:08:57.951Z,10.40
2018-12-25T23:11:35.132Z,10.40
2018-12-25T23:14:10.725Z,10.40
2018-12-25T23:16:48.283Z,10.40
2018-12-25T23:19:23.908Z,10.40
2018-12-25T23:21:58.493Z,10.40
2018-12-25T23:24:35.748Z,10.40
2018-12-25T23:27:08.912Z,10.50
2018-12-25T23:29:39.669Z,10.50
2018-12-25T23:32:10.778Z,10.50
2018-12-25T23:34:59.360Z,10.50
2018-12-25T23:37:31.042Z,10.50
2018-12-25T23:40:05.792Z,10.50
2018-12-25T23:42:36.481Z,10.50
2018-12-25T23:45:09.555Z,10.50
2018-12-25T23:47:57.315Z,10.50
2018-12-25T23:50:36.506Z,10.50
2018-12-25T23:53:16.736Z,10.50
2018-12-25T23:55:57.954Z,10.50
2018-12-25T23:58:35.806Z,10.50
